createdAt,value
2018-05-24T00:00:43.265Z,18.77
2018-05-24T00:03:12.128Z,22.20
2018-05-24T00:05:39.787Z,21.00
2018-05-24T00:08:07.403Z,19.10
2018-05-24T00:10:35.145Z,16.63
2018-05-24T00:13:02.894Z,14.80
2018-05-24T00:15:30.593Z,15.13
2018-05-24T00:17:58.516Z,14.73
2018-05-24T00:20:26.183Z,15.33
2018-05-24T00:22:53.842Z,13.63
2018-05-24T00:27:55.437Z,12.90
2018-05-24T00:30:23.129Z,12.97
2018-05-24T00:32:52.690Z,13.37
2018-05-24T00:35:20.642Z,14.30
2018-05-24T00:37:48.388Z,14.00
2018-05-24T00:40:16.074Z,13.80
2018-05-24T00:45:17.627Z,14.50
2018-05-24T00:47:45.385Z,14.77
2018-05-24T00:50:13.054Z,14.00
2018-05-24T00:52:40.765Z,14.70
2018-05-24T00:55:20.064Z,15.50
2018-05-24T00:57:47.706Z,17.07
2018-05-24T01:02:49.129Z,22.03
2018-05-24T01:05:16.782Z,16.33
2018-05-24T01:07:44.433Z,18.10
2018-05-24T01:10:12.948Z,15.20
2018-05-24T01:12:40.651Z,20.00
2018-05-24T01:15:08.349Z,20.50
2018-05-24T01:17:36.064Z,19.77
2018-05-24T01:20:03.660Z,18.90
2018-05-24T01:22:31.227Z,22.80
2018-05-24T01:24:58.860Z,21.40
2018-05-24T01:27:26.630Z,23.13
2018-05-24T01:29:54.178Z,22.43
2018-05-24T01:32:22.035Z,19.83
2018-05-24T01:34:49.771Z,22.67
2018-05-24T01:37:29.129Z,23.23
2018-05-24T01:39:56.843Z,19.97
2018-05-24T01:42:24.406Z,20.10
2018-05-24T01:44:51.979Z,25.10
2018-05-24T01:47:20.853Z,23.00
2018-05-24T01:49:48.507Z,27.53
2018-05-24T01:52:16.120Z,26.03
2018-05-24T01:54:43.803Z,26.13
2018-05-24T02:02:51.608Z,21.27
2018-05-24T02:05:19.252Z,20.50
2018-05-24T02:07:46.923Z,18.90
2018-05-24T02:10:15.680Z,19.67
2018-05-24T02:12:43.291Z,19.90
2018-05-24T02:15:10.834Z,19.67
2018-05-24T02:17:38.437Z,20.53
2018-05-24T02:20:06.047Z,19.33
2018-05-24T02:22:33.593Z,19.57
2018-05-24T02:25:01.606Z,22.00
2018-05-24T02:27:29.190Z,24.37
2018-05-24T02:29:56.887Z,18.47
2018-05-24T02:32:24.594Z,17.90
2018-05-24T02:34:52.732Z,17.77
2018-05-24T02:37:20.401Z,18.90
2018-05-24T02:39:48.134Z,20.03
2018-05-24T02:42:15.879Z,19.80
2018-05-24T02:44:43.595Z,18.97
2018-05-24T02:47:12.448Z,20.27
2018-05-24T02:49:40.027Z,21.13
2018-05-24T02:52:07.661Z,21.10
2018-05-24T02:54:35.343Z,18.70
2018-05-24T02:57:03.861Z,21.60
2018-05-24T02:59:31.439Z,22.37
2018-05-24T03:01:58.977Z,40.80
2018-05-24T03:04:26.540Z,48.10
2018-05-24T03:06:54.097Z,31.93
2018-05-24T03:09:22.174Z,30.30
2018-05-24T03:11:49.821Z,25.47
2018-05-24T03:14:17.732Z,27.40
2018-05-24T03:16:45.411Z,27.27
2018-05-24T03:19:13.091Z,26.80
2018-05-24T03:21:40.840Z,31.77
2018-05-24T03:24:08.490Z,19.40
2018-05-24T03:26:36.891Z,20.43
2018-05-24T03:31:39.012Z,25.63
2018-05-24T03:34:07.108Z,22.07
2018-05-24T03:36:34.807Z,19.50
2018-05-24T03:39:02.480Z,19.10
2018-05-24T03:41:31.336Z,16.73
2018-05-24T03:43:58.996Z,19.70
2018-05-24T03:46:26.536Z,27.27
2018-05-24T03:48:54.092Z,22.00
2018-05-24T03:51:21.642Z,23.33
2018-05-24T03:53:49.206Z,20.60
2018-05-24T03:56:17.081Z,19.07
2018-05-24T03:58:44.728Z,21.87
2018-05-24T04:01:23.986Z,24.43
2018-05-24T04:03:51.649Z,21.23
2018-05-24T04:06:19.272Z,27.40
2018-05-24T04:08:47.231Z,35.20
2018-05-24T04:11:15.210Z,44.10
2018-05-24T04:13:42.907Z,75.23
2018-05-24T04:16:10.591Z,78.17
2018-05-24T04:18:38.238Z,66.17
2018-05-24T04:21:05.964Z,63.90
2018-05-24T04:23:33.671Z,49.30
2018-05-24T04:26:01.423Z,38.00
2018-05-24T04:28:29.144Z,37.97
2018-05-24T04:30:56.792Z,29.83
2018-05-24T04:33:26.708Z,28.20
2018-05-24T04:35:55.025Z,28.10
2018-05-24T04:38:23.805Z,28.70
2018-05-24T04:40:51.511Z,22.03
2018-05-24T04:43:19.213Z,26.23
2018-05-24T04:45:46.986Z,23.30
2018-05-24T04:48:14.676Z,18.67
2018-05-24T04:50:42.381Z,22.70
2018-05-24T04:53:10.016Z,26.37
2018-05-24T04:55:37.767Z,23.60
2018-05-24T04:58:05.464Z,24.00
2018-05-24T05:00:33.128Z,21.30
2018-05-24T05:03:01.264Z,26.20
2018-05-24T05:05:28.972Z,23.33
2018-05-24T05:07:56.604Z,23.20
2018-05-24T05:10:24.164Z,25.00
2018-05-24T05:12:51.758Z,23.30
2018-05-24T05:15:20.000Z,20.13
2018-05-24T05:17:47.693Z,23.50
2018-05-24T05:20:15.258Z,21.07
2018-05-24T05:22:42.800Z,20.30
2018-05-24T05:25:12.924Z,18.43
2018-05-24T05:27:40.720Z,18.47
2018-05-24T05:30:08.479Z,17.70
2018-05-24T05:32:36.116Z,16.80
2018-05-24T05:35:03.818Z,19.00
2018-05-24T05:37:32.682Z,17.83
2018-05-24T05:40:00.397Z,18.83
2018-05-24T05:42:28.247Z,26.90
2018-05-24T05:44:56.710Z,18.23
2018-05-24T05:47:25.666Z,19.80
2018-05-24T05:49:54.164Z,19.80
2018-05-24T05:52:22.249Z,17.87
2018-05-24T05:54:49.934Z,17.63
2018-05-24T05:57:17.656Z,17.50
2018-05-24T05:59:45.351Z,18.60
2018-05-24T06:02:13.506Z,16.13
2018-05-24T06:04:41.234Z,16.47
2018-05-24T06:07:09.820Z,14.83
2018-05-24T06:09:37.535Z,16.50
2018-05-24T06:12:05.175Z,16.80
2018-05-24T06:14:32.813Z,18.17
2018-05-24T06:17:00.475Z,13.87
2018-05-24T06:19:28.183Z,17.33
2018-05-24T06:24:32.156Z,18.70
2018-05-24T06:26:59.728Z,14.50
2018-05-24T06:29:27.860Z,15.13
2018-05-24T06:31:55.438Z,16.60
2018-05-24T06:34:24.717Z,16.47
2018-05-24T06:36:52.402Z,16.53
2018-05-24T06:41:54.951Z,16.17
2018-05-24T06:44:23.133Z,17.40
2018-05-24T06:46:51.363Z,18.63
2018-05-24T06:49:18.888Z,15.37
2018-05-24T06:51:47.323Z,16.00
2018-05-24T06:54:14.920Z,20.63
2018-05-24T06:56:43.432Z,18.97
2018-05-24T06:59:13.823Z,15.47
2018-05-24T07:01:41.422Z,19.73
2018-05-24T07:04:10.921Z,18.40
2018-05-24T07:06:38.601Z,18.30
2018-05-24T07:09:08.527Z,19.80
2018-05-24T07:11:36.122Z,15.23
2018-05-24T07:14:04.510Z,19.47
2018-05-24T07:16:34.290Z,18.77
2018-05-24T07:19:04.821Z,19.20
2018-05-24T07:21:32.454Z,15.67
2018-05-24T07:24:01.249Z,15.93
2018-05-24T07:26:28.886Z,13.50
2018-05-24T07:28:56.725Z,15.40
2018-05-24T07:31:26.155Z,14.53
2018-05-24T07:33:55.710Z,14.23
2018-05-24T07:36:23.452Z,20.10
2018-05-24T07:38:52.502Z,15.03
2018-05-24T07:41:20.858Z,15.50
2018-05-24T07:43:48.495Z,14.80
2018-05-24T07:46:17.844Z,14.33
2018-05-24T07:48:46.140Z,13.53
2018-05-24T07:51:14.092Z,15.70
2018-05-24T07:53:42.369Z,14.97
2018-05-24T07:56:13.985Z,16.13
2018-05-24T07:58:41.711Z,14.03
2018-05-24T08:01:11.309Z,14.80
2018-05-24T08:03:39.945Z,13.47
2018-05-24T08:06:08.454Z,17.50
2018-05-24T08:08:36.927Z,13.53
2018-05-24T08:11:05.292Z,15.43
2018-05-24T08:13:37.747Z,12.23
2018-05-24T08:16:10.353Z,18.23
2018-05-24T08:19:00.183Z,15.17
2018-05-24T08:21:30.485Z,22.40
2018-05-24T08:24:01.277Z,18.13
2018-05-24T08:26:31.408Z,14.53
2018-05-24T08:29:02.888Z,14.70
2018-05-24T08:31:35.005Z,12.90
2018-05-24T08:34:04.627Z,13.63
2018-05-24T08:36:33.421Z,16.33
2018-05-24T08:39:02.606Z,11.90
2018-05-24T08:41:30.706Z,17.63
2018-05-24T08:43:58.382Z,13.83
2018-05-24T08:46:28.143Z,11.10
2018-05-24T08:48:57.190Z,10.40
2018-05-24T08:51:27.948Z,13.50
2018-05-24T08:54:00.846Z,14.03
2018-05-24T08:59:32.795Z,11.77
2018-05-24T09:02:04.840Z,12.53
2018-05-24T09:04:33.752Z,16.93
2018-05-24T09:09:50.137Z,10.40
2018-05-24T09:12:19.998Z,14.50
2018-05-24T09:14:48.854Z,10.80
2018-05-24T09:17:26.552Z,11.17
2018-05-24T09:19:57.961Z,10.87
2018-05-24T09:22:30.340Z,17.63
2018-05-24T09:25:07.669Z,10.43
2018-05-24T09:30:40.964Z,11.13
2018-05-24T09:33:10.394Z,12.93
2018-05-24T09:35:39.824Z,11.00
2018-05-24T09:38:19.031Z,12.50
2018-05-24T09:40:49.737Z,9.90
2018-05-24T09:43:23.801Z,14.33
2018-05-24T09:45:57.622Z,11.00
2018-05-24T09:48:28.823Z,12.93
2018-05-24T09:50:59.548Z,10.27
2018-05-24T09:53:28.008Z,16.10
2018-05-24T09:56:06.588Z,13.93
2018-05-24T09:58:39.056Z,12.10
2018-05-24T10:01:06.826Z,11.90
2018-05-24T10:03:39.371Z,11.40
2018-05-24T10:06:16.736Z,12.10
2018-05-24T10:08:47.385Z,9.53
2018-05-24T10:11:24.222Z,14.00
2018-05-24T10:13:52.804Z,11.30
2018-05-24T10:16:21.860Z,10.07
2018-05-24T10:18:50.972Z,10.30
2018-05-24T10:21:20.531Z,11.90
2018-05-24T10:23:49.742Z,10.10
2018-05-24T10:26:19.451Z,13.00
2018-05-24T10:28:51.365Z,12.07
2018-05-24T10:31:20.577Z,12.00
2018-05-24T10:33:51.129Z,12.23
2018-05-24T10:36:19.987Z,10.50
2018-05-24T10:38:51.648Z,12.00
2018-05-24T10:43:55.129Z,11.60
2018-05-24T10:46:26.924Z,11.50
2018-05-24T11:07:58.755Z,12.23
2018-05-24T11:10:51.617Z,14.50
2018-05-24T11:13:26.915Z,16.77
2018-05-24T11:15:59.113Z,13.73
2018-05-24T11:19:14.855Z,14.30
2018-05-24T11:21:52.654Z,17.00
2018-05-24T11:30:28.078Z,14.13
2018-05-24T11:33:08.884Z,14.00
2018-05-24T11:57:08.553Z,14.93
2018-05-24T11:59:49.627Z,15.37
2018-05-24T12:02:24.137Z,15.50
2018-05-24T12:04:57.023Z,15.40
2018-05-24T12:07:28.586Z,13.97
2018-05-24T12:09:57.784Z,14.70
2018-05-24T12:12:28.131Z,14.60
2018-05-24T12:14:56.572Z,19.83
2018-05-24T12:17:25.152Z,13.53
2018-05-24T12:19:52.782Z,16.73
2018-05-24T12:22:20.901Z,15.47
2018-05-24T12:24:51.123Z,13.67
2018-05-24T12:27:19.060Z,16.73
2018-05-24T12:29:47.902Z,14.47
2018-05-24T12:32:16.509Z,13.50
2018-05-24T12:34:45.164Z,14.47
2018-05-24T12:37:15.240Z,13.87
2018-05-24T12:39:42.906Z,13.00
2018-05-24T12:42:11.762Z,15.30
2018-05-24T12:44:39.480Z,14.60
2018-05-24T12:47:07.247Z,14.57
2018-05-24T12:49:34.873Z,17.60
2018-05-24T12:52:04.816Z,15.50
2018-05-24T12:54:33.407Z,16.87
2018-05-24T12:57:01.090Z,17.53
2018-05-24T12:59:28.843Z,17.73
2018-05-24T13:01:57.894Z,17.20
2018-05-24T13:04:31.715Z,15.60
2018-05-24T13:06:59.447Z,15.23
2018-05-24T13:09:28.918Z,16.20
2018-05-24T13:11:56.584Z,16.23
2018-05-24T13:14:24.184Z,16.80
2018-05-24T13:16:51.814Z,18.93
2018-05-24T13:19:19.481Z,17.80
2018-05-24T13:21:47.117Z,18.00
2018-05-24T13:24:14.735Z,19.67
2018-05-24T13:26:42.407Z,16.10
2018-05-24T13:29:10.285Z,18.10
2018-05-24T13:31:38.141Z,25.27
2018-05-24T13:34:06.098Z,19.47
2018-05-24T13:36:35.433Z,16.60
2018-05-24T13:39:03.171Z,15.07
2018-05-24T13:41:30.740Z,16.03
2018-05-24T13:43:58.886Z,15.77
2018-05-24T13:46:26.506Z,14.53
2018-05-24T13:48:54.220Z,16.67
2018-05-24T13:51:21.927Z,12.53
2018-05-24T13:53:49.628Z,12.23
2018-05-24T13:56:17.221Z,13.17
2018-05-24T13:58:46.057Z,11.93
2018-05-24T14:01:13.824Z,14.53
2018-05-24T14:03:41.557Z,16.90
2018-05-24T14:06:09.226Z,12.53
2018-05-24T14:08:37.982Z,12.40
2018-05-24T14:11:06.717Z,12.73
2018-05-24T14:16:09.519Z,12.33
2018-05-24T14:18:37.187Z,12.97
2018-05-24T14:21:04.815Z,10.43
2018-05-24T14:23:33.943Z,12.90
2018-05-24T14:26:01.657Z,14.67
2018-05-24T14:28:30.704Z,13.83
2018-05-24T14:30:58.496Z,11.77
2018-05-24T14:33:26.225Z,12.13
2018-05-24T14:35:54.516Z,12.70
2018-05-24T14:38:22.278Z,14.70
2018-05-24T14:40:49.895Z,13.33
2018-05-24T14:43:17.483Z,15.17
2018-05-24T14:45:45.325Z,15.67
2018-05-24T14:48:13.727Z,18.93
2018-05-24T14:50:41.360Z,15.30
2018-05-24T14:53:11.837Z,15.30
2018-05-24T14:55:40.567Z,22.50
2018-05-24T14:58:08.236Z,15.73
2018-05-24T15:00:35.929Z,19.00
2018-05-24T15:03:04.330Z,14.67
2018-05-24T15:05:32.231Z,20.33
2018-05-24T15:07:59.890Z,20.07
2018-05-24T15:10:27.572Z,17.67
2018-05-24T15:12:55.291Z,26.80
2018-05-24T15:15:22.968Z,24.00
2018-05-24T15:17:50.675Z,24.87
2018-05-24T15:20:20.645Z,23.60
2018-05-24T15:22:48.447Z,19.23
2018-05-24T15:25:20.245Z,18.00
2018-05-24T15:27:52.769Z,17.70
2018-05-24T15:30:21.796Z,22.63
2018-05-24T15:32:49.516Z,19.20
2018-05-24T15:35:17.349Z,22.67
2018-05-24T15:37:45.931Z,23.73
2018-05-24T15:40:13.521Z,25.33
2018-05-24T15:42:46.620Z,25.93
2018-05-24T15:45:17.322Z,27.50
2018-05-24T15:47:48.130Z,31.33
2018-05-24T15:50:17.573Z,39.00
2018-05-24T15:52:45.271Z,47.30
2018-05-24T15:55:14.272Z,40.13
2018-05-24T15:57:43.090Z,25.23
2018-05-24T16:00:13.581Z,18.70
2018-05-24T16:02:42.619Z,17.20
2018-05-24T16:05:12.364Z,17.67
2018-05-24T16:07:41.392Z,17.87
2018-05-24T16:10:09.771Z,17.50
2018-05-24T16:12:37.592Z,16.70
2018-05-24T16:15:05.409Z,16.83
2018-05-24T16:17:35.295Z,16.33
2018-05-24T16:20:08.307Z,16.83
2018-05-24T16:22:36.369Z,14.30
2018-05-24T16:25:04.001Z,14.23
2018-05-24T16:27:31.826Z,15.43
2018-05-24T16:29:59.498Z,14.57
2018-05-24T16:32:27.223Z,18.63
2018-05-24T16:34:54.969Z,15.77
2018-05-24T16:37:22.842Z,16.80
2018-05-24T16:39:50.579Z,25.67
2018-05-24T16:42:18.215Z,14.50
2018-05-24T16:44:45.854Z,20.40
2018-05-24T16:47:14.004Z,19.80
2018-05-24T16:49:41.864Z,14.67
2018-05-24T16:52:10.565Z,15.47
2018-05-24T16:54:38.948Z,15.47
2018-05-24T16:57:07.542Z,14.77
2018-05-24T16:59:35.862Z,22.33
2018-05-24T17:04:37.598Z,20.87
2018-05-24T17:07:09.172Z,24.40
2018-05-24T17:09:36.943Z,18.37
2018-05-24T17:12:06.138Z,24.30
2018-05-24T17:14:35.997Z,24.07
2018-05-24T17:17:03.689Z,25.17
2018-05-24T17:19:35.998Z,22.27
2018-05-24T17:22:03.573Z,20.10
2018-05-24T17:24:31.261Z,15.83
2018-05-24T17:27:00.401Z,14.30
2018-05-24T17:29:29.965Z,13.20
2018-05-24T17:31:58.689Z,13.07
2018-05-24T17:34:28.828Z,12.23
2018-05-24T17:36:58.689Z,13.17
2018-05-24T17:39:30.805Z,12.40
2018-05-24T17:42:00.247Z,13.27
2018-05-24T17:44:28.799Z,31.97
2018-05-24T17:46:59.464Z,40.17
2018-05-24T17:49:29.741Z,33.60
2018-05-24T17:51:57.957Z,19.13
2018-05-24T17:54:25.742Z,16.27
2018-05-24T17:56:54.674Z,13.03
2018-05-24T17:59:24.743Z,13.00
2018-05-24T18:01:52.296Z,12.70
2018-05-24T18:04:20.453Z,12.93
2018-05-24T18:06:48.168Z,12.07
2018-05-24T18:09:16.699Z,12.87
2018-05-24T18:11:44.267Z,12.37
2018-05-24T18:14:13.798Z,11.37
2018-05-24T18:16:41.513Z,12.33
2018-05-24T18:22:09.681Z,12.17
2018-05-24T18:24:37.791Z,12.97
2018-05-24T18:27:05.520Z,13.97
2018-05-24T18:29:35.015Z,12.80
2018-05-24T18:32:04.574Z,14.27
2018-05-24T18:34:33.304Z,13.97
2018-05-24T18:37:01.215Z,13.93
2018-05-24T18:39:31.064Z,13.03
2018-05-24T18:41:59.681Z,14.87
2018-05-24T18:44:31.853Z,14.87
2018-05-24T18:47:03.327Z,13.77
2018-05-24T18:49:38.401Z,14.97
2018-05-24T18:52:08.082Z,14.67
2018-05-24T18:54:37.411Z,16.10
2018-05-24T18:57:06.591Z,18.37
2018-05-24T18:59:35.828Z,19.23
2018-05-24T19:02:05.205Z,16.87
2018-05-24T19:04:32.966Z,17.27
2018-05-24T19:07:01.277Z,21.73
2018-05-24T19:09:29.059Z,15.23
2018-05-24T19:11:58.216Z,16.90
2018-05-24T19:14:28.696Z,16.57
2018-05-24T19:16:57.507Z,17.80
2018-05-24T19:19:26.551Z,15.63
2018-05-24T19:21:59.309Z,15.93
2018-05-24T19:24:27.354Z,18.97
2018-05-24T19:26:56.263Z,20.23
2018-05-24T19:29:23.983Z,19.27
2018-05-24T19:31:51.605Z,18.87
2018-05-24T19:34:19.179Z,25.37
2018-05-24T19:36:46.793Z,22.53
2018-05-24T19:39:14.395Z,20.23
2018-05-24T19:41:43.051Z,20.87
2018-05-24T19:44:10.919Z,20.63
2018-05-24T19:46:39.701Z,21.30
2018-05-24T19:49:13.499Z,20.43
2018-05-24T19:51:46.679Z,20.70
2018-05-24T19:54:15.338Z,21.03
2018-05-24T19:56:42.968Z,18.03
2018-05-24T19:59:10.682Z,19.13
2018-05-24T20:01:38.347Z,18.60
2018-05-24T20:04:06.402Z,17.90
2018-05-24T20:06:34.113Z,18.10
2018-05-24T20:09:01.784Z,15.83
2018-05-24T20:11:29.488Z,16.20
2018-05-24T20:13:57.200Z,16.53
2018-05-24T20:16:24.888Z,16.97
2018-05-24T20:18:52.666Z,16.33
2018-05-24T20:21:20.517Z,14.60
2018-05-24T20:23:48.231Z,15.90
2018-05-24T20:26:15.879Z,14.90
2018-05-24T20:28:44.716Z,16.43
2018-05-24T20:31:13.305Z,14.80
2018-05-24T20:33:42.273Z,14.20
2018-05-24T20:36:10.067Z,15.13
2018-05-24T20:38:37.840Z,20.73
2018-05-24T20:41:05.533Z,17.03
2018-05-24T20:43:34.027Z,16.30
2018-05-24T20:46:01.599Z,14.23
2018-05-24T20:48:29.237Z,15.10
2018-05-24T20:51:01.404Z,15.60
2018-05-24T20:53:30.351Z,15.73
2018-05-24T20:55:58.062Z,18.50
2018-05-24T20:58:25.756Z,17.73
2018-05-24T21:00:53.483Z,18.23
2018-05-24T21:03:22.406Z,20.13
2018-05-24T21:05:50.167Z,19.77
2018-05-24T21:08:17.859Z,18.13
2018-05-24T21:10:45.602Z,18.83
2018-05-24T21:13:13.398Z,18.17
2018-05-24T21:15:42.321Z,23.60
2018-05-24T21:18:09.975Z,20.00
2018-05-24T21:20:37.713Z,17.10
2018-05-24T21:23:05.377Z,17.67
2018-05-24T21:25:34.795Z,18.77
2018-05-24T21:28:02.549Z,19.43
2018-05-24T21:30:30.259Z,24.80
2018-05-24T21:32:57.830Z,30.47
2018-05-24T21:35:25.560Z,27.53
2018-05-24T21:37:53.127Z,26.07
2018-05-24T21:40:20.664Z,22.50
2018-05-24T21:42:48.292Z,23.13
2018-05-24T21:45:16.049Z,20.93
2018-05-24T21:47:43.582Z,21.60
2018-05-24T21:50:11.343Z,18.37
2018-05-24T21:52:39.113Z,18.33
2018-05-24T21:55:06.799Z,16.40
2018-05-24T21:57:36.073Z,16.07
2018-05-24T22:00:03.779Z,13.60
2018-05-24T22:02:36.492Z,20.03
2018-05-24T22:05:05.003Z,12.27
2018-05-24T22:07:33.092Z,13.87
2018-05-24T22:10:01.518Z,15.37
2018-05-24T22:12:29.633Z,18.80
2018-05-24T22:14:57.322Z,14.00
2018-05-24T22:17:25.455Z,13.17
2018-05-24T22:22:44.918Z,15.33
2018-05-24T22:25:13.408Z,13.30
2018-05-24T22:27:41.107Z,15.00
2018-05-24T22:30:08.776Z,14.20
2018-05-24T22:32:46.178Z,13.63
2018-05-24T22:35:30.383Z,13.67
2018-05-24T22:40:53.235Z,20.47
2018-05-24T22:43:31.710Z,18.80
2018-05-24T22:45:59.356Z,19.07
2018-05-24T22:48:27.019Z,16.73
2018-05-24T22:50:54.725Z,14.37
2018-05-24T22:53:22.732Z,14.53
2018-05-24T22:55:50.548Z,13.83
2018-05-24T22:58:18.389Z,13.80
2018-05-24T23:00:46.059Z,11.47
2018-05-24T23:03:13.909Z,10.97
2018-05-24T23:05:41.613Z,10.27
2018-05-24T23:08:09.304Z,10.43
2018-05-24T23:10:37.013Z,11.03
2018-05-24T23:13:04.653Z,12.07
2018-05-24T23:15:32.377Z,10.60
2018-05-24T23:18:00.044Z,13.00
2018-05-24T23:20:27.725Z,12.37
2018-05-24T23:22:55.458Z,14.87
2018-05-24T23:25:24.069Z,15.37
2018-05-24T23:27:51.677Z,16.80
2018-05-24T23:30:22.096Z,16.90
2018-05-24T23:32:50.281Z,15.60
2018-05-24T23:35:17.963Z,13.50
2018-05-24T23:37:45.597Z,14.53
2018-05-24T23:40:13.216Z,13.83
2018-05-24T23:42:40.871Z,13.43
2018-05-24T23:45:08.480Z,16.73
2018-05-24T23:47:36.281Z,13.40
2018-05-24T23:50:03.940Z,17.67
2018-05-24T23:52:31.689Z,17.17
2018-05-24T23:54:59.349Z,20.90
2018-05-24T23:57:27.551Z,16.03
2018-05-24T23:59:55.254Z,15.53
